Main page
METAR-TAF:

METAR-TAF

Airports :

Mactan–Cebu International Airport

Cebu, Philippines

latitude: 10-18-48N, longitude: 123-58-58E, elevation: 23 m

Current weather observation

The report was made 1 hour and 2 minutes ago, at 03:00 UTC
Wind 13 kt from the Northeast
Temperature 29°C
Humidity 74%
Pressure 1014 hPa
Visibility 10 km or more
Few clouds at a height of 2000 ft

METAR: RPVM 240300Z 04013KT 9999 FEW020 29/24 Q1014 NOSIG RMK A2994

Time: 12:02 (04:02 UTC)

Forecast

The report was made 5 hours and 2 minutes ago, at 23:00 UTC
Forecast valid from 24 at 00 UTC to 25 at 06 UTC
Wind 7 kt from the Northeast
Visibility 10 km or more
Few clouds at a height of 2000 ft
Scattered clouds at a height of 30000 ft
Temporary
from 24 at 00 UTC to 24 at 06 UTC
Wind 9 kt from the Northeast
Few clouds at a height of 2000 ft
Temporary
from 24 at 06 UTC to 24 at 12 UTC
Few clouds at a height of 2000 ft

TAF: RPVM 232300Z 2400/2506 04007KT 9999 FEW020 SCT300 TEMPO 2400/2406 05009KT FEW020 TEMPO 2406/2412 FEW020

Weather observations and forecasts of more than 4000 airports (METAR and TAF reports).

The available stations are represented by yellow and red dots on the map.

Hover mouse over dot to see the name of the station.

Then click to see weather observations and forecasts.

To change the map : click on the green buttons with a black cross to zoom in, on the green button with a dash to zoom out, or on the green arrows for adjacent maps.


METAR-TAF: